Time;durP1;ratioP1;P1;durP2;ratioP2;P2;SDS_P1;SDS_P2;PMS_P1;PMS_P2;Temp;Humidity;BMP_temperature;BMP_pressure;BME280_temperature;BME280_humidity;BME280_pressure;Samples;Min_cycle;Max_cycle;Signal;HPM_P1;HPM_P2
2022/03/10 00:52:08;;;;;;;;;;;1.10;99.90;;;;;;6328168;22;19978;-88
2022/03/10 04:31:23;;;;;;;;;;;0.30;99.90;;;;;;6335552;22;20360;-86
2022/03/10 04:33:50;;;;;;;;;;;0.30;99.90;;;;;;6303320;22;19941;-87
2022/03/10 04:36:28;;;;;;;;;;;0.20;99.90;;;;;;6333009;22;19969;-87
2022/03/10 04:38:54;;;;;;;;;;;0.00;99.90;;;;;;6279443;22;19945;-86
2022/03/10 04:41:19;;;;;;;;;;;0.00;99.90;;;;;;6331599;22;19959;-87
2022/03/10 04:44:04;;;;;;;;;;;-0.10;99.90;;;;;;6305788;22;20218;-87
2022/03/10 04:46:31;;;;;;;;;;;-1.80;99.90;;;;;;6300228;22;20008;-87
2022/03/10 04:48:57;;;;;;;;;;;0.10;99.90;;;;;;6304489;22;19964;-88
2022/03/10 04:51:23;;;;;;;;;;;1.30;99.90;;;;;;6305787;22;19951;-88
2022/03/10 04:53:48;;;;;;;;;;;0.00;99.90;;;;;;6305564;22;19935;-87
2022/03/10 04:56:26;;;;;;;;;;;0.00;99.90;;;;;;6328258;22;20194;-87
2022/03/10 04:58:54;;;;;;;;;;;0.00;99.90;;;;;;6305413;22;19971;-87
2022/03/10 05:01:23;;;;;;;;;;;0.00;99.90;;;;;;6335265;22;19983;-87
2022/03/10 05:03:50;;;;;;;;;;;-0.10;99.90;;;;;;6308317;22;19938;-88
2022/03/10 05:06:34;;;;;;;;;;;0.90;99.90;;;;;;6337041;22;19942;-86
2022/03/10 05:08:59;;;;;;;;;;;-0.10;99.90;;;;;;6306136;22;20312;-87
2022/03/10 05:11:25;;;;;;;;;;;-0.10;99.90;;;;;;6306018;22;19951;-87
2022/03/10 05:13:50;;;;;;;;;;;-0.40;99.90;;;;;;6303638;22;20014;-88
2022/03/10 05:16:16;;;;;;;;;;;-0.20;99.90;;;;;;6304088;22;20745;-87
2022/03/10 05:18:54;;;;;;;;;;;-0.20;99.90;;;;;;6332580;22;19947;-85
2022/03/10 05:21:19;;;;;;;;;;;-0.30;99.90;;;;;;6303687;22;19997;-86
2022/03/10 05:23:45;;;;;;;;;;;-0.20;99.90;;;;;;6303467;22;19966;-87
2022/03/10 05:26:12;;;;;;;;;;;-0.30;99.90;;;;;;6303953;22;20041;-87
2022/03/10 05:28:50;;;;;;;;;;;-0.30;99.90;;;;;;6304460;22;19939;-85
2022/03/10 05:31:17;;;;;;;;;;;-0.30;99.90;;;;;;6304349;22;20353;-86
2022/03/10 05:33:44;;;;;;;;;;;-0.30;99.90;;;;;;6332229;22;19969;-87
2022/03/10 05:36:20;;;;;;;;;;;-0.30;99.90;;;;;;6332626;22;19954;-87
2022/03/10 05:38:45;;;;;;;;;;;-0.30;99.90;;;;;;6304299;22;20220;-86
2022/03/10 05:41:26;;;;;;;;;;;-0.40;99.90;;;;;;6304021;22;19959;-87
2022/03/10 05:43:52;;;;;;;;;;;-0.20;99.90;;;;;;6304374;22;20252;-86
2022/03/10 05:46:27;;;;;;;;;;;-0.20;99.90;;;;;;6331990;22;20012;-87
2022/03/10 05:48:53;;;;;;;;;;;-0.20;99.90;;;;;;6299911;22;19968;-86
2022/03/10 05:51:18;;;;;;;;;;;-0.20;99.90;;;;;;6298681;22;20013;-85
2022/03/10 05:53:59;;;;;;;;;;;-0.20;99.90;;;;;;6300869;22;19964;-89
2022/03/10 05:56:26;;;;;;;;;;;-0.30;99.90;;;;;;6300868;22;19950;-88
2022/03/10 05:58:52;;;;;;;;;;;-0.10;99.90;;;;;;6300773;22;20339;-86
2022/03/10 06:01:27;;;;;;;;;;;0.80;99.90;;;;;;6300940;22;19963;-86
2022/03/10 06:03:52;;;;;;;;;;;0.10;99.90;;;;;;6300241;22;19990;-88
2022/03/10 06:06:18;;;;;;;;;;;0.10;99.90;;;;;;6299451;22;19944;-87
2022/03/10 06:09:00;;;;;;;;;;;0.20;99.90;;;;;;6301601;22;19940;-86
2022/03/10 06:11:25;;;;;;;;;;;0.30;99.90;;;;;;6301419;22;20016;-88
2022/03/10 06:13:51;;;;;;;;;;;0.40;99.90;;;;;;6301566;22;19982;-88
2022/03/10 06:16:18;;;;;;;;;;;1.50;99.90;;;;;;6303133;22;19974;-89
2022/03/10 06:18:44;;;;;;;;;;;0.40;99.90;;;;;;6302324;22;19973;-88
2022/03/10 06:21:13;;;;;;;;;;;3.30;99.90;;;;;;6307032;22;19965;-87
2022/03/10 06:23:39;;;;;;;;;;;1.20;99.90;;;;;;6306743;22;20326;-89
2022/03/10 06:26:04;;;;;;;;;;;0.60;99.90;;;;;;6304503;22;19945;-88
2022/03/10 06:28:51;;;;;;;;;;;2.30;99.90;;;;;;6273765;22;20016;-87
2022/03/10 06:31:16;;;;;;;;;;;1.20;99.90;;;;;;6299382;22;20023;-87
2022/03/10 06:33:59;;;;;;;;;;;1.30;99.90;;;;;;6299149;22;19973;-88
2022/03/10 06:36:26;;;;;;;;;;;0.80;99.90;;;;;;6305616;22;19978;-86
2022/03/10 06:39:07;;;;;;;;;;;0.70;99.90;;;;;;6305772;22;19970;-85
2022/03/10 06:41:34;;;;;;;;;;;0.50;99.90;;;;;;6301173;22;19957;-87
2022/03/10 06:43:59;;;;;;;;;;;1.00;99.90;;;;;;6300477;22;19938;-85
2022/03/10 06:46:43;;;;;;;;;;;1.00;99.90;;;;;;6302701;22;20008;-88
2022/03/10 06:49:09;;;;;;;;;;;1.10;99.90;;;;;;6300765;22;19962;-85
2022/03/10 06:51:35;;;;;;;;;;;1.20;99.90;;;;;;6299456;22;19947;-88
2022/03/10 06:54:00;;;;;;;;;;;1.20;99.90;;;;;;6299861;22;19940;-87
2022/03/10 06:56:46;;;;;;;;;;;1.20;99.90;;;;;;6297942;22;19954;-85
2022/03/10 06:59:12;;;;;;;;;;;0.50;99.90;;;;;;6300755;22;20224;-88
2022/03/10 07:01:38;;;;;;;;;;;1.10;99.90;;;;;;6304051;22;19957;-88
2022/03/10 07:04:06;;;;;;;;;;;2.50;99.90;;;;;;6281011;22;19939;-88
2022/03/10 07:06:50;;;;;;;;;;;1.30;99.90;;;;;;6308389;22;19939;-89
2022/03/10 07:09:16;;;;;;;;;;;1.70;99.90;;;;;;6308722;22;19937;-88
2022/03/10 07:11:51;;;;;;;;;;;;;;;;;;;;;
2022/03/10 07:14:26;;;;;;;;;;;1.40;99.90;;;;;;6201231;22;19975;-89
2022/03/10 07:17:10;;;;;;;;;;;4.80;99.90;;;;;;6301169;22;19941;-88
2022/03/10 07:19:36;;;;;;;;;;;2.10;98.70;;;;;;6306722;22;19944;-88
2022/03/10 07:22:01;;;;;;;;;;;2.20;99.10;;;;;;6308057;22;19989;-90
2022/03/10 07:24:37;;;;;;;;;;;;;;;;;;;;;
2022/03/10 07:27:11;;;;;;;;;;;3.50;98.60;;;;;;6296018;22;19983;-85
2022/03/10 07:29:37;;;;;;;;;;;2.60;97.70;;;;;;6308716;22;20083;-90
2022/03/10 07:32:03;;;;;;;;;;;2.70;98.20;;;;;;6307731;22;20016;-87
2022/03/10 07:34:47;;;;;;;;;;;2.90;97.70;;;;;;6307178;22;19944;-86
2022/03/10 07:37:31;;;;;;;;;;;2.80;96.80;;;;;;6307249;22;20040;-90
2022/03/10 07:40:20;;;;;;;;;;;3.20;96.30;;;;;;6307127;22;19954;-89
2022/03/10 07:45:50;;;;;;;;;;;3.50;96.10;;;;;;6335827;22;20060;-92
2022/03/10 07:48:41;;;;;;;;;;;3.70;95.60;;;;;;6304835;22;19963;-86
2022/03/10 07:51:07;;;;;;;;;;;3.80;94.10;;;;;;6303597;22;20330;-87
2022/03/10 07:53:33;;;;;;;;;;;4.00;93.50;;;;;;6305797;22;19947;-86
2022/03/10 07:55:58;;;;;;;;;;;5.70;93.60;;;;;;6306278;22;19941;-89
2022/03/10 07:58:25;;;;;;;;;;;4.30;93.80;;;;;;6326254;22;20249;-86
2022/03/10 08:01:17;;;;;;;;;;;4.60;93.00;;;;;;6307092;22;19980;-86
2022/03/10 08:03:46;;;;;;;;;;;4.60;92.60;;;;;;6326577;22;19999;-82
2022/03/10 08:09:06;;;;;;;;;;;5.00;90.20;;;;;;6333142;22;20435;-86
2022/03/10 08:11:49;;;;;;;;;;;5.30;90.00;;;;;;6307704;22;19952;-88
2022/03/10 08:14:37;;;;;;;;;;;4.70;88.00;;;;;;6305943;22;19957;-87
2022/03/10 08:17:26;;;;;;;;;;;5.60;87.90;;;;;;6305054;22;19953;-90
2022/03/10 08:19:54;;;;;;;;;;;5.80;86.30;;;;;;6161237;23;19944;-87
2022/03/10 08:22:20;;;;;;;;;;;6.20;85.30;;;;;;6151645;23;20020;-86
2022/03/10 08:25:01;;;;;;;;;;;5.50;84.40;;;;;;6262463;22;19945;-87
2022/03/10 08:27:30;;;;;;;;;;;5.80;86.10;;;;;;6304265;22;19960;-87
2022/03/10 08:30:05;;;;;;;;;;;5.80;84.30;;;;;;6305556;22;19948;-85
2022/03/10 08:32:32;;;;;;;;;;;5.50;84.50;;;;;;6333362;22;19939;-83
2022/03/10 08:35:00;;;;;;;;;;;6.30;83.40;;;;;;6333005;22;19936;-87
2022/03/10 08:37:26;;;;;;;;;;;5.80;85.30;;;;;;6305274;22;19941;-86
2022/03/10 08:40:19;;;;;;;;;;;6.60;81.50;;;;;;6330557;22;19963;-91
2022/03/10 08:42:47;;;;;;;;;;;5.20;80.70;;;;;;6332063;22;20034;-87
2022/03/10 08:45:31;;;;;;;;;;;6.40;80.50;;;;;;6281978;22;19943;-91
2022/03/10 08:47:56;;;;;;;;;;;6.50;77.40;;;;;;6334780;22;20037;-87
2022/03/10 08:50:22;;;;;;;;;;;6.60;78.80;;;;;;6338018;22;19939;-93
2022/03/10 08:53:03;;;;;;;;;;;6.70;75.70;;;;;;6306108;22;19939;-88
2022/03/10 08:55:34;;;;;;;;;;;6.80;77.90;;;;;;6332405;22;19962;-88
2022/03/10 08:58:00;;;;;;;;;;;6.90;75.20;;;;;;6306443;22;19936;-87
2022/03/10 09:00:26;;;;;;;;;;;7.20;73.40;;;;;;6306656;22;20067;-89
2022/03/10 09:02:51;;;;;;;;;;;7.50;72.90;;;;;;6336296;22;19946;-90
2022/03/10 09:05:37;;;;;;;;;;;7.60;73.90;;;;;;6307241;22;19956;-89
2022/03/10 09:08:03;;;;;;;;;;;7.50;75.10;;;;;;6300395;22;19972;-89
2022/03/10 09:10:28;;;;;;;;;;;7.30;76.10;;;;;;6301196;22;20039;-86
2022/03/10 09:13:16;;;;;;;;;;;7.80;76.00;;;;;;6302961;22;20251;-87
2022/03/10 09:15:45;;;;;;;;;;;7.10;73.90;;;;;;6301457;22;19937;-88
2022/03/10 09:18:11;;;;;;;;;;;8.30;74.40;;;;;;6301144;22;19936;-86
2022/03/10 09:20:57;;;;;;;;;;;7.70;71.20;;;;;;6307055;22;20267;-88
2022/03/10 09:23:22;;;;;;;;;;;7.10;74.20;;;;;;6307841;22;19935;-86
2022/03/10 09:26:00;;;;;;;;;;;7.90;72.60;;;;;;6304963;22;19999;-86
2022/03/10 09:28:28;;;;;;;;;;;7.60;73.10;;;;;;6301146;22;19941;-88
2022/03/10 09:30:54;;;;;;;;;;;8.00;74.30;;;;;;6300180;22;19994;-87
2022/03/10 09:33:20;;;;;;;;;;;8.60;72.80;;;;;;6303327;22;19939;-88
2022/03/10 09:35:45;;;;;;;;;;;8.80;72.80;;;;;;6302441;22;19964;-86
2022/03/10 09:38:11;;;;;;;;;;;8.40;70.00;;;;;;6304905;22;19937;-90
2022/03/10 09:41:18;;;;;;;;;;;10.20;73.60;;;;;;6304720;22;19961;-85
2022/03/10 09:44:00;;;;;;;;;;;8.20;70.80;;;;;;6267333;22;19938;-84
2022/03/10 09:46:25;;;;;;;;;;;9.50;69.90;;;;;;6301421;22;20320;-85
2022/03/10 09:48:52;;;;;;;;;;;8.70;71.50;;;;;;6300394;22;20086;-85
2022/03/10 09:51:19;;;;;;;;;;;9.30;70.80;;;;;;6300176;22;20003;-82
2022/03/10 09:53:45;;;;;;;;;;;9.00;68.30;;;;;;6302805;22;20816;-84
2022/03/10 09:56:23;;;;;;;;;;;9.20;70.10;;;;;;6302298;22;19940;-83
2022/03/10 09:58:52;;;;;;;;;;;10.00;67.40;;;;;;6293196;22;19967;-85
2022/03/10 10:01:20;;;;;;;;;;;9.50;67.50;;;;;;6303039;22;19965;-86
2022/03/10 10:03:46;;;;;;;;;;;9.60;64.40;;;;;;6301750;22;19995;-85
2022/03/10 10:06:12;;;;;;;;;;;9.70;65.20;;;;;;6300996;22;20008;-87
2022/03/10 10:08:41;;;;;;;;;;;9.60;64.60;;;;;;6301954;22;20025;-87
2022/03/10 10:11:07;;;;;;;;;;;9.80;64.10;;;;;;6302041;22;19990;-86
2022/03/10 10:16:30;;;;;;;;;;;10.10;66.00;;;;;;6303122;22;19947;-84
2022/03/10 10:18:56;;;;;;;;;;;10.60;63.90;;;;;;6302168;22;20250;-88
2022/03/10 10:21:22;;;;;;;;;;;10.20;62.70;;;;;;6302357;22;20326;-88
2022/03/10 10:24:14;;;;;;;;;;;11.30;64.30;;;;;;6302441;22;20019;-87
2022/03/10 10:26:40;;;;;;;;;;;11.00;61.60;;;;;;6301970;22;19944;-86
2022/03/10 10:29:05;;;;;;;;;;;11.20;63.20;;;;;;6302558;22;19975;-84
2022/03/10 10:31:48;;;;;;;;;;;11.40;61.40;;;;;;6304931;22;20418;-87
2022/03/10 10:34:29;;;;;;;;;;;11.50;60.90;;;;;;6306321;22;19951;-88
2022/03/10 10:36:56;;;;;;;;;;;11.60;60.30;;;;;;6308260;22;19953;-86
2022/03/10 10:39:21;;;;;;;;;;;11.90;63.10;;;;;;6305058;22;19951;-85
2022/03/10 10:41:48;;;;;;;;;;;12.00;60.40;;;;;;6302594;22;20040;-87
2022/03/10 10:44:19;;;;;;;;;;;12.10;61.30;;;;;;6303658;22;20352;-84
2022/03/10 10:46:45;;;;;;;;;;;12.10;59.70;;;;;;6301258;22;19973;-86
2022/03/10 10:49:11;;;;;;;;;;;12.20;57.20;;;;;;6300737;22;19953;-85
2022/03/10 10:51:44;;;;;;;;;;;12.30;57.60;;;;;;6302164;22;20018;-87
2022/03/10 10:54:32;;;;;;;;;;;12.40;55.90;;;;;;6300726;22;19986;-89
2022/03/10 10:56:58;;;;;;;;;;;12.50;55.50;;;;;;6304372;22;19973;-85
2022/03/10 10:59:28;;;;;;;;;;;12.60;55.70;;;;;;6301878;22;19938;-83
2022/03/10 11:02:08;;;;;;;;;;;12.70;57.80;;;;;;6303479;22;19958;-82
2022/03/10 11:04:50;;;;;;;;;;;;;;;;;;;;;
2022/03/10 11:07:20;;;;;;;;;;;13.50;58.30;;;;;;6298160;22;20023;-82
2022/03/10 11:09:48;;;;;;;;;;;13.00;55.20;;;;;;6301579;22;19965;-84
2022/03/10 11:12:23;;;;;;;;;;;13.10;53.80;;;;;;6303702;22;20004;-86
2022/03/10 11:14:58;;;;;;;;;;;13.20;55.40;;;;;;6306401;22;19940;-86
2022/03/10 11:17:24;;;;;;;;;;;13.30;53.90;;;;;;6301861;22;20034;-84
2022/03/10 11:19:53;;;;;;;;;;;13.40;56.20;;;;;;6300714;22;19949;-84
2022/03/10 11:22:37;;;;;;;;;;;13.60;53.70;;;;;;6299397;22;19942;-84
2022/03/10 11:25:12;;;;;;;;;;;13.80;56.40;;;;;;6302982;22;20476;-86
2022/03/10 11:27:51;;;;;;;;;;;13.90;57.50;;;;;;6302062;22;19948;-84
2022/03/10 11:30:26;;;;;;;;;;;14.30;57.00;;;;;;6300318;22;19961;-85
2022/03/10 11:33:02;;;;;;;;;;;14.20;55.10;;;;;;6300014;22;19987;-86
2022/03/10 11:35:30;;;;;;;;;;;14.30;53.90;;;;;;6300005;22;19936;-85
2022/03/10 11:37:55;;;;;;;;;;;14.50;55.90;;;;;;6303025;22;19935;-95
2022/03/10 11:40:44;;;;;;;;;;;14.80;54.10;;;;;;6300306;22;20712;-89
2022/03/10 11:43:11;;;;;;;;;;;14.90;54.00;;;;;;6288598;22;19936;-93
2022/03/10 11:45:38;;;;;;;;;;;14.90;50.40;;;;;;6308533;22;20254;-91
2022/03/10 11:48:22;;;;;;;;;;;14.90;51.00;;;;;;6303728;22;19935;-87
2022/03/10 11:50:48;;;;;;;;;;;14.80;52.90;;;;;;6300880;22;20192;-87
2022/03/10 11:53:14;;;;;;;;;;;15.00;54.00;;;;;;6301914;22;20276;-86
2022/03/10 11:55:43;;;;;;;;;;;15.10;52.90;;;;;;6301367;22;19936;-86
2022/03/10 11:58:10;;;;;;;;;;;15.10;50.20;;;;;;6300789;22;20364;-90
2022/03/10 12:00:39;;;;;;;;;;;15.10;50.80;;;;;;6299074;22;20000;-84
2022/03/10 12:03:04;;;;;;;;;;;15.10;51.60;;;;;;6298382;22;19942;-84
2022/03/10 12:05:48;;;;;;;;;;;15.20;49.20;;;;;;6303834;22;19938;-88
2022/03/10 12:08:17;;;;;;;;;;;15.40;51.40;;;;;;6300744;22;19967;-83
2022/03/10 12:10:44;;;;;;;;;;;15.30;49.50;;;;;;6302136;22;19990;-84
2022/03/10 12:13:28;;;;;;;;;;;15.30;51.70;;;;;;6299040;22;19938;-91
2022/03/10 12:15:55;;;;;;;;;;;15.40;49.40;;;;;;6303244;22;19940;-89
2022/03/10 12:18:23;;;;;;;;;;;15.40;48.00;;;;;;6304344;22;20015;-86
2022/03/10 12:20:50;;;;;;;;;;;15.50;50.40;;;;;;6303679;22;19958;-86
2022/03/10 12:23:16;;;;;;;;;;;15.50;48.00;;;;;;6306824;22;19950;-86
2022/03/10 12:25:46;;;;;;;;;;;15.60;49.60;;;;;;6307226;22;19922;-85
2022/03/10 12:28:21;;;;;;;;;;;15.90;47.60;;;;;;6304114;22;19933;-86
2022/03/10 12:30:47;;;;;;;;;;;16.10;48.50;;;;;;6302196;22;19929;-89
2022/03/10 12:33:15;;;;;;;;;;;16.10;50.10;;;;;;6301603;22;20293;-90
2022/03/10 12:35:41;;;;;;;;;;;16.40;47.00;;;;;;6304289;22;19936;-89
2022/03/10 12:38:07;;;;;;;;;;;16.60;47.60;;;;;;6307824;22;19943;-91
2022/03/10 12:40:34;;;;;;;;;;;17.40;47.00;;;;;;6305498;22;20023;-86
2022/03/10 12:43:01;;;;;;;;;;;18.20;47.00;;;;;;6301629;22;19933;-84
2022/03/10 12:45:26;;;;;;;;;;;18.60;42.10;;;;;;6303925;22;20044;-86
2022/03/10 12:47:54;;;;;;;;;;;18.90;44.70;;;;;;6305765;22;19915;-89
2022/03/10 12:50:20;;;;;;;;;;;19.20;43.80;;;;;;6301461;22;20313;-86
2022/03/10 12:52:48;;;;;;;;;;;19.40;42.80;;;;;;6300531;22;19930;-85
2022/03/10 12:55:24;;;;;;;;;;;19.70;43.00;;;;;;6301727;22;20247;-87
2022/03/10 12:57:49;;;;;;;;;;;19.90;40.90;;;;;;6301851;22;19915;-88
2022/03/10 13:00:17;;;;;;;;;;;20.00;41.70;;;;;;6297574;22;20335;-85
2022/03/10 13:02:45;;;;;;;;;;;19.90;38.00;;;;;;6301221;22;19938;-85
2022/03/10 13:05:13;;;;;;;;;;;19.90;38.00;;;;;;6302768;22;19911;-89
2022/03/10 13:07:39;;;;;;;;;;;20.00;40.70;;;;;;6305029;22;19915;-84
2022/03/10 13:10:09;;;;;;;;;;;19.50;41.70;;;;;;6310989;22;19914;-88
2022/03/10 13:12:37;;;;;;;;;;;19.50;42.10;;;;;;6337308;22;19972;-85
2022/03/10 13:15:03;;;;;;;;;;;18.70;42.00;;;;;;6309575;22;19915;-87
2022/03/10 13:17:34;;;;;;;;;;;17.80;42.60;;;;;;6337994;22;20112;-89
2022/03/10 13:20:01;;;;;;;;;;;17.20;44.60;;;;;;6308048;22;19921;-85
2022/03/10 13:22:27;;;;;;;;;;;16.70;43.00;;;;;;6327969;22;19964;-86
2022/03/10 13:24:53;;;;;;;;;;;16.30;45.30;;;;;;6303893;22;19914;-83
2022/03/10 13:27:20;;;;;;;;;;;16.20;44.00;;;;;;6333280;22;19960;-86
2022/03/10 13:29:48;;;;;;;;;;;16.00;44.40;;;;;;6300743;22;19915;-84
2022/03/10 13:32:18;;;;;;;;;;;15.90;44.60;;;;;;6304918;22;19914;-83
2022/03/10 13:34:43;;;;;;;;;;;15.80;46.60;;;;;;6304967;22;20000;-83
2022/03/10 13:37:10;;;;;;;;;;;15.80;46.40;;;;;;6302145;22;19989;-83
2022/03/10 13:39:36;;;;;;;;;;;15.70;44.90;;;;;;6306042;22;19921;-86
2022/03/10 13:42:28;;;;;;;;;;;15.80;48.30;;;;;;6308220;22;19945;-84
2022/03/10 13:45:13;;;;;;;;;;;15.60;47.70;;;;;;6305017;22;19915;-86
2022/03/10 13:47:52;;;;;;;;;;;15.50;47.10;;;;;;6334067;22;19925;-86
2022/03/10 13:50:19;;;;;;;;;;;15.30;48.40;;;;;;6305697;22;19915;-88
2022/03/10 13:52:45;;;;;;;;;;;15.60;47.60;;;;;;6304285;22;19984;-88
2022/03/10 13:55:31;;;;;;;;;;;15.80;47.70;;;;;;6308966;22;19918;-85
2022/03/10 13:57:57;;;;;;;;;;;15.20;48.30;;;;;;6302965;22;20159;-86
2022/03/10 14:00:48;;;;;;;;;;;15.20;49.70;;;;;;6304145;22;19914;-84
2022/03/10 14:03:22;;;;;;;;;;;15.20;47.10;;;;;;6308045;22;19915;-86
2022/03/10 14:05:48;;;;;;;;;;;15.10;47.20;;;;;;6333431;22;19914;-86
2022/03/10 14:08:35;;;;;;;;;;;15.10;49.80;;;;;;6305879;22;19915;-84
2022/03/10 14:11:08;;;;;;;;;;;15.00;48.00;;;;;;6307256;22;19925;-84
2022/03/10 14:13:47;;;;;;;;;;;15.30;49.20;;;;;;6306138;22;19910;-84
2022/03/10 14:16:31;;;;;;;;;;;14.90;48.30;;;;;;6305270;22;20025;-86
2022/03/10 14:18:57;;;;;;;;;;;15.00;47.40;;;;;;6335325;22;19915;-92
2022/03/10 14:21:26;;;;;;;;;;;14.90;47.50;;;;;;6307598;22;20016;-86
2022/03/10 14:23:56;;;;;;;;;;;15.20;48.30;;;;;;6306615;22;20299;-91
2022/03/10 14:26:36;;;;;;;;;;;14.80;48.40;;;;;;6298546;22;19914;-84
2022/03/10 14:29:09;;;;;;;;;;;14.70;48.00;;;;;;6309270;22;20214;-86
2022/03/10 14:31:35;;;;;;;;;;;14.70;47.90;;;;;;6305932;22;19918;-93
2022/03/10 14:34:02;;;;;;;;;;;14.70;48.40;;;;;;6308564;22;19940;-90
2022/03/10 14:36:27;;;;;;;;;;;14.70;48.40;;;;;;6334772;22;20232;-83
2022/03/10 14:39:05;;;;;;;;;;;14.70;49.40;;;;;;6306204;22;19962;-86
2022/03/10 14:41:33;;;;;;;;;;;14.80;49.10;;;;;;6307404;22;20229;-85
2022/03/10 14:44:16;;;;;;;;;;;14.70;48.80;;;;;;6306874;22;19967;-85
2022/03/10 14:46:52;;;;;;;;;;;15.40;46.60;;;;;;6302759;22;20284;-86
2022/03/10 14:49:18;;;;;;;;;;;14.60;47.10;;;;;;6305584;22;20254;-89
2022/03/10 14:51:44;;;;;;;;;;;14.60;47.70;;;;;;6307752;22;19914;-90
2022/03/10 14:54:09;;;;;;;;;;;14.70;49.50;;;;;;6311580;22;19940;-91
2022/03/10 14:56:37;;;;;;;;;;;15.20;46.60;;;;;;6340175;22;19934;-92
2022/03/10 14:59:21;;;;;;;;;;;14.80;46.00;;;;;;6304987;22;20404;-84
2022/03/10 15:01:46;;;;;;;;;;;14.70;47.40;;;;;;6307276;22;19918;-95
2022/03/10 15:04:12;;;;;;;;;;;14.50;46.70;;;;;;6335479;22;19960;-87
2022/03/10 15:06:37;;;;;;;;;;;14.60;46.30;;;;;;6307590;22;19918;-88
2022/03/10 15:09:25;;;;;;;;;;;14.60;46.10;;;;;;6337397;22;19929;-87
2022/03/10 15:11:51;;;;;;;;;;;14.60;46.30;;;;;;6314621;22;19921;-91
2022/03/10 15:14:16;;;;;;;;;;;14.60;46.80;;;;;;6313524;22;20258;-85
2022/03/10 15:16:45;;;;;;;;;;;14.60;46.00;;;;;;6307973;22;19933;-86
2022/03/10 15:19:37;;;;;;;;;;;14.60;46.40;;;;;;6308108;22;19925;-86
2022/03/10 15:22:16;;;;;;;;;;;14.60;48.20;;;;;;6309757;22;19914;-92
2022/03/10 15:24:41;;;;;;;;;;;14.30;46.40;;;;;;6305940;22;19914;-86
2022/03/10 15:27:16;;;;;;;;;;;15.30;45.40;;;;;;6308808;22;19926;-91
2022/03/10 15:29:42;;;;;;;;;;;14.70;46.10;;;;;;6304689;22;19911;-88
2022/03/10 15:32:07;;;;;;;;;;;14.60;46.20;;;;;;6307719;22;20456;-92
2022/03/10 15:34:48;;;;;;;;;;;14.60;46.90;;;;;;6308791;22;19910;-92
2022/03/10 15:37:14;;;;;;;;;;;14.80;48.00;;;;;;6306577;22;19914;-86
2022/03/10 15:39:40;;;;;;;;;;;14.60;44.70;;;;;;6306602;22;19922;-83
2022/03/10 15:42:06;;;;;;;;;;;14.60;46.30;;;;;;6306521;22;19937;-86
2022/03/10 15:44:32;;;;;;;;;;;14.90;46.10;;;;;;6304991;22;20384;-86
2022/03/10 15:47:16;;;;;;;;;;;14.60;44.90;;;;;;6336369;22;19982;-90
2022/03/10 15:49:43;;;;;;;;;;;14.60;45.40;;;;;;6306932;22;19985;-89
2022/03/10 15:52:08;;;;;;;;;;;14.40;46.30;;;;;;6308673;22;19919;-96
2022/03/10 15:54:52;;;;;;;;;;;14.70;47.50;;;;;;6307883;22;20250;-88
2022/03/10 15:57:22;;;;;;;;;;;14.50;46.00;;;;;;6339061;22;19994;-89
2022/03/10 15:59:47;;;;;;;;;;;14.50;46.70;;;;;;6340217;22;19989;-88
2022/03/10 16:02:40;;;;;;;;;;;15.20;47.80;;;;;;6311283;22;19922;-92
2022/03/10 16:05:13;;;;;;;;;;;14.50;45.40;;;;;;6309135;22;19914;-88
2022/03/10 16:07:57;;;;;;;;;;;14.20;46.60;;;;;;6306157;22;20356;-87
2022/03/10 16:10:25;;;;;;;;;;;14.40;45.90;;;;;;6305453;22;20013;-87
2022/03/10 16:12:51;;;;;;;;;;;14.10;46.30;;;;;;6305477;22;20319;-86
2022/03/10 16:15:17;;;;;;;;;;;14.70;46.50;;;;;;6305721;22;19914;-87
2022/03/10 16:17:58;;;;;;;;;;;14.30;46.80;;;;;;6309294;22;20327;-87
2022/03/10 16:20:24;;;;;;;;;;;14.30;47.60;;;;;;6306345;22;20332;-88
2022/03/10 16:22:50;;;;;;;;;;;14.30;47.50;;;;;;6305731;22;19918;-87
2022/03/10 16:25:19;;;;;;;;;;;14.20;48.10;;;;;;6305049;22;19985;-85
2022/03/10 16:27:47;;;;;;;;;;;14.20;47.50;;;;;;6333628;22;20314;-87
2022/03/10 16:30:27;;;;;;;;;;;14.10;48.20;;;;;;6324861;22;19921;-87
2022/03/10 16:32:58;;;;;;;;;;;14.00;48.10;;;;;;6303611;22;20253;-86
2022/03/10 16:35:24;;;;;;;;;;;14.00;47.20;;;;;;6305798;22;19971;-87
2022/03/10 16:38:14;;;;;;;;;;;13.90;46.70;;;;;;6332679;22;19981;-86
2022/03/10 16:40:40;;;;;;;;;;;13.70;47.60;;;;;;6332002;22;20183;-85
2022/03/10 16:43:06;;;;;;;;;;;13.80;47.90;;;;;;6305145;22;19993;-85
2022/03/10 16:45:41;;;;;;;;;;;14.10;48.10;;;;;;6304514;22;19945;-87
2022/03/10 16:48:13;;;;;;;;;;;13.70;49.00;;;;;;6306366;22;19925;-87
2022/03/10 16:50:38;;;;;;;;;;;13.60;48.00;;;;;;6307336;22;19958;-88
2022/03/10 16:53:05;;;;;;;;;;;13.60;49.10;;;;;;6305379;22;19914;-86
2022/03/10 16:55:30;;;;;;;;;;;13.50;48.80;;;;;;6305204;22;19922;-87
2022/03/10 16:57:57;;;;;;;;;;;13.50;48.20;;;;;;6305344;22;19979;-86
2022/03/10 17:00:39;;;;;;;;;;;13.40;48.60;;;;;;6303995;22;19929;-87
2022/03/10 17:03:07;;;;;;;;;;;13.30;48.40;;;;;;6305556;22;19990;-86
2022/03/10 17:05:51;;;;;;;;;;;13.30;48.30;;;;;;6334030;22;20369;-86
2022/03/10 17:08:17;;;;;;;;;;;13.20;49.30;;;;;;6332411;22;19921;-85
2022/03/10 17:10:42;;;;;;;;;;;13.80;50.30;;;;;;6304416;22;19910;-85
2022/03/10 17:13:09;;;;;;;;;;;13.00;49.70;;;;;;6304680;22;20013;-86
2022/03/10 17:15:53;;;;;;;;;;;13.00;49.70;;;;;;6262541;22;19925;-88
2022/03/10 17:18:35;;;;;;;;;;;12.80;50.90;;;;;;6334198;22;19914;-87
2022/03/10 17:21:01;;;;;;;;;;;12.70;50.20;;;;;;6336140;22;20322;-86
2022/03/10 17:23:47;;;;;;;;;;;13.30;51.10;;;;;;6308589;22;19968;-87
2022/03/10 17:26:14;;;;;;;;;;;12.60;51.20;;;;;;6332928;22;19985;-86
2022/03/10 17:29:00;;;;;;;;;;;12.50;51.10;;;;;;6305530;22;19921;-87
2022/03/10 17:31:28;;;;;;;;;;;12.40;50.90;;;;;;6304985;22;20265;-86
2022/03/10 17:34:14;;;;;;;;;;;12.30;51.60;;;;;;6305264;22;19921;-88
2022/03/10 17:36:41;;;;;;;;;;;12.30;51.50;;;;;;6331029;22;19976;-89
2022/03/10 17:39:23;;;;;;;;;;;12.20;52.20;;;;;;6302620;22;19915;-87
2022/03/10 17:42:11;;;;;;;;;;;11.90;52.30;;;;;;6304087;22;19984;-87
2022/03/10 17:44:36;;;;;;;;;;;12.00;52.70;;;;;;6331407;22;19915;-88
2022/03/10 17:47:02;;;;;;;;;;;12.00;53.40;;;;;;6331445;22;19919;-87
2022/03/10 17:49:53;;;;;;;;;;;11.90;53.40;;;;;;6303435;22;19977;-87
2022/03/10 17:52:44;;;;;;;;;;;11.80;53.90;;;;;;6331843;22;19918;-88
2022/03/10 17:55:10;;;;;;;;;;;11.70;54.40;;;;;;6304779;22;19958;-86
2022/03/10 17:57:54;;;;;;;;;;;11.60;54.50;;;;;;6304634;22;19929;-88
2022/03/10 18:00:20;;;;;;;;;;;11.60;54.70;;;;;;6302533;22;19915;-87
2022/03/10 18:02:47;;;;;;;;;;;11.80;54.90;;;;;;6304027;22;20250;-87
2022/03/10 18:05:16;;;;;;;;;;;11.40;55.20;;;;;;6304934;22;19971;-85
2022/03/10 18:07:42;;;;;;;;;;;11.30;55.30;;;;;;6307777;22;19922;-86
2022/03/10 18:13:12;;;;;;;;;;;11.20;55.60;;;;;;6295274;22;19921;-86
2022/03/10 18:15:42;;;;;;;;;;;11.20;55.80;;;;;;6341521;22;19963;-87
2022/03/10 18:18:30;;;;;;;;;;;10.90;55.60;;;;;;6311607;22;20322;-88
2022/03/10 18:20:55;;;;;;;;;;;11.30;55.90;;;;;;6329759;22;20311;-86
2022/03/10 18:23:26;;;;;;;;;;;11.00;55.70;;;;;;6334398;22;19949;-88
2022/03/10 18:25:52;;;;;;;;;;;11.00;55.80;;;;;;6305811;22;19918;-87
2022/03/10 18:28:40;;;;;;;;;;;10.90;55.90;;;;;;6331370;22;19914;-87
2022/03/10 18:31:08;;;;;;;;;;;10.90;55.90;;;;;;6332741;22;20001;-86
2022/03/10 18:33:34;;;;;;;;;;;10.80;55.90;;;;;;6307293;22;20343;-87
2022/03/10 18:35:59;;;;;;;;;;;10.80;56.20;;;;;;6305846;22;19930;-88
2022/03/10 18:41:07;;;;;;;;;;;10.60;56.50;;;;;;6334475;22;19925;-86
2022/03/10 18:46:26;;;;;;;;;;;10.40;56.90;;;;;;6273532;22;19961;-85
2022/03/10 18:48:51;;;;;;;;;;;10.40;57.50;;;;;;6301185;22;19918;-89
2022/03/10 18:51:42;;;;;;;;;;;10.20;58.10;;;;;;6326919;22;20032;-88
2022/03/10 18:54:09;;;;;;;;;;;10.10;57.70;;;;;;6303117;22;19922;-88
2022/03/10 18:57:03;;;;;;;;;;;10.00;58.50;;;;;;6284715;22;20161;-88
2022/03/10 18:59:33;;;;;;;;;;;8.80;58.20;;;;;;6307214;22;19921;-88
2022/03/10 19:02:14;;;;;;;;;;;9.80;59.50;;;;;;6307734;22;19945;-89
2022/03/10 19:04:58;;;;;;;;;;;9.70;59.90;;;;;;6307487;22;19914;-87
2022/03/10 19:10:43;;;;;;;;;;;9.50;60.10;;;;;;6308324;22;19919;-90
2022/03/10 19:13:30;;;;;;;;;;;9.40;61.80;;;;;;6284355;22;19915;-88
2022/03/10 19:15:56;;;;;;;;;;;9.30;62.30;;;;;;6314083;22;20220;-89
2022/03/10 19:18:21;;;;;;;;;;;9.30;62.50;;;;;;6337094;22;20327;-88
2022/03/10 19:20:47;;;;;;;;;;;9.40;62.80;;;;;;6334095;22;19918;-86
2022/03/10 19:26:24;;;;;;;;;;;9.50;63.40;;;;;;6333034;22;19913;-86
2022/03/10 19:29:15;;;;;;;;;;;9.50;62.40;;;;;;6309447;22;19922;-88
2022/03/10 19:31:41;;;;;;;;;;;9.00;63.60;;;;;;6308793;22;19925;-87
2022/03/10 19:34:08;;;;;;;;;;;9.60;63.30;;;;;;6307024;22;19991;-86
2022/03/10 19:36:56;;;;;;;;;;;9.60;63.70;;;;;;6307404;22;19998;-89
2022/03/10 19:41:58;;;;;;;;;;;9.60;64.70;;;;;;6361592;22;19942;-88
2022/03/10 19:44:25;;;;;;;;;;;9.10;65.60;;;;;;6336040;22;20311;-86